sensor_id;sensor_type;location;lat;lon;timestamp;temperature;humidity
12815;DHT22;6472;52.328;13.070;2023-11-19T00:01:17;3.90;99.90
12815;DHT22;6472;52.328;13.070;2023-11-19T00:03:46;4.10;99.90
12815;DHT22;6472;52.328;13.070;2023-11-19T00:06:16;4.00;99.90
12815;DHT22;6472;52.328;13.070;2023-11-19T00:08:44;3.90;99.90
12815;DHT22;6472;52.328;13.070;2023-11-19T00:11:13;3.90;99.90
12815;DHT22;6472;52.328;13.070;2023-11-19T00:13:43;4.00;99.90
12815;DHT22;6472;52.328;13.070;2023-11-19T00:16:12;4.00;99.90
12815;DHT22;6472;52.328;13.070;2023-11-19T00:18:41;4.00;99.90
12815;DHT22;6472;52.328;13.070;2023-11-19T00:21:09;4.10;99.90
12815;DHT22;6472;52.328;13.070;2023-11-19T00:23:37;4.10;99.90
12815;DHT22;6472;52.328;13.070;2023-11-19T00:26:05;4.10;99.90
12815;DHT22;6472;52.328;13.070;2023-11-19T00:28:34;4.10;99.90
12815;DHT22;6472;52.328;13.070;2023-11-19T00:31:05;4.10;99.90
12815;DHT22;6472;52.328;13.070;2023-11-19T00:33:33;4.20;99.90
12815;DHT22;6472;52.328;13.070;2023-11-19T00:36:02;4.20;99.90
12815;DHT22;6472;52.328;13.070;2023-11-19T00:38:30;4.30;99.90
12815;DHT22;6472;52.328;13.070;2023-11-19T00:40:58;4.30;99.90
12815;DHT22;6472;52.328;13.070;2023-11-19T00:43:27;4.30;99.90
12815;DHT22;6472;52.328;13.070;2023-11-19T00:45:55;4.30;99.90
12815;DHT22;6472;52.328;13.070;2023-11-19T00:48:24;4.30;99.90
12815;DHT22;6472;52.328;13.070;2023-11-19T00:50:53;4.30;99.90
12815;DHT22;6472;52.328;13.070;2023-11-19T00:53:21;4.30;99.90
12815;DHT22;6472;52.328;13.070;2023-11-19T00:55:49;4.20;99.90
12815;DHT22;6472;52.328;13.070;2023-11-19T00:58:18;4.20;99.90
12815;DHT22;6472;52.328;13.070;2023-11-19T01:00:46;4.30;99.90
12815;DHT22;6472;52.328;13.070;2023-11-19T01:03:15;4.30;99.90
12815;DHT22;6472;52.328;13.070;2023-11-19T01:05:44;4.30;99.90
12815;DHT22;6472;52.328;13.070;2023-11-19T01:08:13;4.40;99.90
12815;DHT22;6472;52.328;13.070;2023-11-19T01:10:43;4.30;99.90
12815;DHT22;6472;52.328;13.070;2023-11-19T01:13:11;4.30;99.90
12815;DHT22;6472;52.328;13.070;2023-11-19T01:18:08;4.40;99.90
12815;DHT22;6472;52.328;13.070;2023-11-19T01:20:37;4.40;99.90
12815;DHT22;6472;52.328;13.070;2023-11-19T01:23:06;4.40;99.90
12815;DHT22;6472;52.328;13.070;2023-11-19T01:25:34;4.40;99.90
12815;DHT22;6472;52.328;13.070;2023-11-19T01:28:05;4.40;99.90
12815;DHT22;6472;52.328;13.070;2023-11-19T01:30:33;4.40;99.90
12815;DHT22;6472;52.328;13.070;2023-11-19T01:33:01;4.40;99.90
12815;DHT22;6472;52.328;13.070;2023-11-19T01:35:29;4.40;99.90
12815;DHT22;6472;52.328;13.070;2023-11-19T01:37:57;4.40;99.90
12815;DHT22;6472;52.328;13.070;2023-11-19T01:40:27;4.60;99.90
12815;DHT22;6472;52.328;13.070;2023-11-19T01:42:55;4.50;99.90
12815;DHT22;6472;52.328;13.070;2023-11-19T01:45:28;4.40;99.90
12815;DHT22;6472;52.328;13.070;2023-11-19T01:48:00;4.50;99.90
12815;DHT22;6472;52.328;13.070;2023-11-19T01:50:30;4.50;99.90
12815;DHT22;6472;52.328;13.070;2023-11-19T01:52:59;4.50;99.90
12815;DHT22;6472;52.328;13.070;2023-11-19T01:55:29;4.60;99.90
12815;DHT22;6472;52.328;13.070;2023-11-19T01:58:00;4.60;99.90
12815;DHT22;6472;52.328;13.070;2023-11-19T02:00:30;4.60;99.90
12815;DHT22;6472;52.328;13.070;2023-11-19T02:03:00;4.60;99.90
12815;DHT22;6472;52.328;13.070;2023-11-19T02:05:30;4.60;99.90
12815;DHT22;6472;52.328;13.070;2023-11-19T02:07:59;4.60;99.90
12815;DHT22;6472;52.328;13.070;2023-11-19T02:10:29;4.60;99.90
12815;DHT22;6472;52.328;13.070;2023-11-19T02:12:59;4.60;99.90
12815;DHT22;6472;52.328;13.070;2023-11-19T02:15:31;4.60;99.90
12815;DHT22;6472;52.328;13.070;2023-11-19T02:18:17;4.60;99.90
12815;DHT22;6472;52.328;13.070;2023-11-19T02:20:45;4.70;99.90
12815;DHT22;6472;52.328;13.070;2023-11-19T02:23:17;4.70;99.90
12815;DHT22;6472;52.328;13.070;2023-11-19T02:26:02;4.70;99.90
12815;DHT22;6472;52.328;13.070;2023-11-19T02:28:34;4.70;99.90
12815;DHT22;6472;52.328;13.070;2023-11-19T02:31:04;4.70;99.90
12815;DHT22;6472;52.328;13.070;2023-11-19T02:33:36;4.70;99.90
12815;DHT22;6472;52.328;13.070;2023-11-19T02:36:05;4.70;99.90
12815;DHT22;6472;52.328;13.070;2023-11-19T02:38:34;4.80;99.90
12815;DHT22;6472;52.328;13.070;2023-11-19T02:41:04;4.80;99.90
12815;DHT22;6472;52.328;13.070;2023-11-19T02:43:35;4.80;99.90
12815;DHT22;6472;52.328;13.070;2023-11-19T02:46:06;4.80;99.90
12815;DHT22;6472;52.328;13.070;2023-11-19T02:48:38;4.90;99.90
12815;DHT22;6472;52.328;13.070;2023-11-19T02:51:07;4.90;99.90
12815;DHT22;6472;52.328;13.070;2023-11-19T02:53:37;4.90;99.90
12815;DHT22;6472;52.328;13.070;2023-11-19T02:56:07;5.00;99.90
12815;DHT22;6472;52.328;13.070;2023-11-19T02:58:47;5.00;99.90
12815;DHT22;6472;52.328;13.070;2023-11-19T03:01:21;4.90;99.90
12815;DHT22;6472;52.328;13.070;2023-11-19T03:03:57;5.00;99.90
12815;DHT22;6472;52.328;13.070;2023-11-19T03:06:26;5.00;99.90
12815;DHT22;6472;52.328;13.070;2023-11-19T03:08:55;5.10;99.90
12815;DHT22;6472;52.328;13.070;2023-11-19T03:11:24;4.90;99.90
12815;DHT22;6472;52.328;13.070;2023-11-19T03:13:53;4.90;99.90
12815;DHT22;6472;52.328;13.070;2023-11-19T03:16:22;4.90;99.90
12815;DHT22;6472;52.328;13.070;2023-11-19T03:18:50;4.90;99.90
12815;DHT22;6472;52.328;13.070;2023-11-19T03:21:18;4.80;99.90
12815;DHT22;6472;52.328;13.070;2023-11-19T03:23:46;4.80;99.90
12815;DHT22;6472;52.328;13.070;2023-11-19T03:26:14;4.70;99.90
12815;DHT22;6472;52.328;13.070;2023-11-19T03:28:42;4.70;99.90
12815;DHT22;6472;52.328;13.070;2023-11-19T03:31:12;4.80;99.90
12815;DHT22;6472;52.328;13.070;2023-11-19T03:33:40;4.60;99.90
12815;DHT22;6472;52.328;13.070;2023-11-19T03:36:09;4.70;99.90
12815;DHT22;6472;52.328;13.070;2023-11-19T03:38:37;4.80;99.90
12815;DHT22;6472;52.328;13.070;2023-11-19T03:41:10;4.80;99.90
12815;DHT22;6472;52.328;13.070;2023-11-19T03:43:39;4.70;99.90
12815;DHT22;6472;52.328;13.070;2023-11-19T03:46:17;4.70;99.90
12815;DHT22;6472;52.328;13.070;2023-11-19T03:48:46;4.60;99.90
12815;DHT22;6472;52.328;13.070;2023-11-19T03:51:15;4.70;99.90
12815;DHT22;6472;52.328;13.070;2023-11-19T03:53:43;4.70;99.90
12815;DHT22;6472;52.328;13.070;2023-11-19T03:56:12;4.80;99.90
12815;DHT22;6472;52.328;13.070;2023-11-19T03:58:40;4.70;99.90
12815;DHT22;6472;52.328;13.070;2023-11-19T04:01:11;4.80;99.90
12815;DHT22;6472;52.328;13.070;2023-11-19T04:03:42;4.80;99.90
12815;DHT22;6472;52.328;13.070;2023-11-19T04:06:13;4.80;99.90
12815;DHT22;6472;52.328;13.070;2023-11-19T04:08:41;4.80;99.90
12815;DHT22;6472;52.328;13.070;2023-11-19T04:11:09;4.70;99.90
12815;DHT22;6472;52.328;13.070;2023-11-19T04:13:37;4.70;99.90
12815;DHT22;6472;52.328;13.070;2023-11-19T04:16:06;4.70;99.90
12815;DHT22;6472;52.328;13.070;2023-11-19T04:18:34;4.70;99.90
12815;DHT22;6472;52.328;13.070;2023-11-19T04:21:06;4.70;99.90
12815;DHT22;6472;52.328;13.070;2023-11-19T04:23:35;4.70;99.90
12815;DHT22;6472;52.328;13.070;2023-11-19T04:26:04;4.80;99.90
12815;DHT22;6472;52.328;13.070;2023-11-19T04:28:36;4.70;99.90
12815;DHT22;6472;52.328;13.070;2023-11-19T04:31:04;4.70;99.90
12815;DHT22;6472;52.328;13.070;2023-11-19T04:33:33;4.70;99.90
12815;DHT22;6472;52.328;13.070;2023-11-19T04:36:01;4.70;99.90
12815;DHT22;6472;52.328;13.070;2023-11-19T04:38:31;4.70;99.90
12815;DHT22;6472;52.328;13.070;2023-11-19T04:41:00;4.80;99.90
12815;DHT22;6472;52.328;13.070;2023-11-19T04:43:29;4.60;99.90
12815;DHT22;6472;52.328;13.070;2023-11-19T04:45:57;4.70;99.90
12815;DHT22;6472;52.328;13.070;2023-11-19T04:48:25;4.70;99.90
12815;DHT22;6472;52.328;13.070;2023-11-19T04:50:53;4.70;99.90
12815;DHT22;6472;52.328;13.070;2023-11-19T04:53:21;4.70;99.90
12815;DHT22;6472;52.328;13.070;2023-11-19T04:55:51;4.60;99.90
12815;DHT22;6472;52.328;13.070;2023-11-19T04:58:19;4.60;99.90
12815;DHT22;6472;52.328;13.070;2023-11-19T05:00:47;4.60;99.90
12815;DHT22;6472;52.328;13.070;2023-11-19T05:03:15;4.70;99.90
12815;DHT22;6472;52.328;13.070;2023-11-19T05:05:44;4.80;99.90
12815;DHT22;6472;52.328;13.070;2023-11-19T05:08:13;4.80;99.90
12815;DHT22;6472;52.328;13.070;2023-11-19T05:10:41;4.80;99.90
12815;DHT22;6472;52.328;13.070;2023-11-19T05:13:10;4.70;99.90
12815;DHT22;6472;52.328;13.070;2023-11-19T05:15:39;4.70;99.90
12815;DHT22;6472;52.328;13.070;2023-11-19T05:18:07;4.70;99.90
12815;DHT22;6472;52.328;13.070;2023-11-19T05:20:35;4.80;99.90
12815;DHT22;6472;52.328;13.070;2023-11-19T05:23:04;4.80;99.90
12815;DHT22;6472;52.328;13.070;2023-11-19T05:25:32;4.80;99.90
12815;DHT22;6472;52.328;13.070;2023-11-19T05:28:00;4.80;99.90
12815;DHT22;6472;52.328;13.070;2023-11-19T05:30:30;4.80;99.90
12815;DHT22;6472;52.328;13.070;2023-11-19T05:32:58;4.80;99.90
12815;DHT22;6472;52.328;13.070;2023-11-19T05:35:27;4.80;99.90
12815;DHT22;6472;52.328;13.070;2023-11-19T05:37:55;4.80;99.90
12815;DHT22;6472;52.328;13.070;2023-11-19T05:40:23;4.80;99.90
12815;DHT22;6472;52.328;13.070;2023-11-19T05:42:52;4.80;99.90
12815;DHT22;6472;52.328;13.070;2023-11-19T05:45:20;4.90;99.90
12815;DHT22;6472;52.328;13.070;2023-11-19T05:47:50;4.90;99.90
12815;DHT22;6472;52.328;13.070;2023-11-19T05:50:19;4.90;99.90
12815;DHT22;6472;52.328;13.070;2023-11-19T05:52:47;4.90;99.90
12815;DHT22;6472;52.328;13.070;2023-11-19T05:55:15;4.90;99.90
12815;DHT22;6472;52.328;13.070;2023-11-19T05:57:44;4.90;99.90
12815;DHT22;6472;52.328;13.070;2023-11-19T06:00:13;5.00;99.90
12815;DHT22;6472;52.328;13.070;2023-11-19T06:02:42;5.00;99.90
12815;DHT22;6472;52.328;13.070;2023-11-19T06:05:12;4.90;99.90
12815;DHT22;6472;52.328;13.070;2023-11-19T06:07:40;5.00;99.90
12815;DHT22;6472;52.328;13.070;2023-11-19T06:10:09;5.00;99.90
12815;DHT22;6472;52.328;13.070;2023-11-19T06:12:38;5.00;99.90
12815;DHT22;6472;52.328;13.070;2023-11-19T06:15:08;5.00;99.90
12815;DHT22;6472;52.328;13.070;2023-11-19T06:17:37;5.00;99.90
12815;DHT22;6472;52.328;13.070;2023-11-19T06:20:06;5.00;99.90
12815;DHT22;6472;52.328;13.070;2023-11-19T06:22:36;5.10;99.90
12815;DHT22;6472;52.328;13.070;2023-11-19T06:25:05;5.10;99.90
12815;DHT22;6472;52.328;13.070;2023-11-19T06:27:34;5.20;99.90
12815;DHT22;6472;52.328;13.070;2023-11-19T06:30:03;5.20;99.90
12815;DHT22;6472;52.328;13.070;2023-11-19T06:32:32;5.20;99.90
12815;DHT22;6472;52.328;13.070;2023-11-19T06:35:00;5.20;99.90
12815;DHT22;6472;52.328;13.070;2023-11-19T06:37:31;5.30;99.90
12815;DHT22;6472;52.328;13.070;2023-11-19T06:40:00;5.30;99.90
12815;DHT22;6472;52.328;13.070;2023-11-19T06:42:29;5.30;99.90
12815;DHT22;6472;52.328;13.070;2023-11-19T06:44:57;5.20;99.90
12815;DHT22;6472;52.328;13.070;2023-11-19T06:47:26;5.20;99.90
12815;DHT22;6472;52.328;13.070;2023-11-19T06:49:55;5.20;99.90
12815;DHT22;6472;52.328;13.070;2023-11-19T06:52:23;5.20;99.90
12815;DHT22;6472;52.328;13.070;2023-11-19T06:54:51;5.40;99.90
12815;DHT22;6472;52.328;13.070;2023-11-19T06:57:35;5.30;99.90
12815;DHT22;6472;52.328;13.070;2023-11-19T07:00:05;5.30;99.90
12815;DHT22;6472;52.328;13.070;2023-11-19T07:02:33;5.30;99.90
12815;DHT22;6472;52.328;13.070;2023-11-19T07:05:01;5.40;99.90
12815;DHT22;6472;52.328;13.070;2023-11-19T07:07:31;5.40;99.90
12815;DHT22;6472;52.328;13.070;2023-11-19T07:09:59;5.40;99.90
12815;DHT22;6472;52.328;13.070;2023-11-19T07:12:28;5.40;99.90
12815;DHT22;6472;52.328;13.070;2023-11-19T07:14:58;5.50;99.90
12815;DHT22;6472;52.328;13.070;2023-11-19T07:17:27;5.50;99.90
12815;DHT22;6472;52.328;13.070;2023-11-19T07:19:55;5.50;99.90
12815;DHT22;6472;52.328;13.070;2023-11-19T07:22:26;5.50;99.90
12815;DHT22;6472;52.328;13.070;2023-11-19T07:24:56;5.50;99.90
12815;DHT22;6472;52.328;13.070;2023-11-19T07:27:25;5.60;99.90
12815;DHT22;6472;52.328;13.070;2023-11-19T07:29:54;5.60;99.90
12815;DHT22;6472;52.328;13.070;2023-11-19T07:32:24;5.60;99.90
12815;DHT22;6472;52.328;13.070;2023-11-19T07:34:52;5.70;99.90
12815;DHT22;6472;52.328;13.070;2023-11-19T07:37:20;5.70;99.90
12815;DHT22;6472;52.328;13.070;2023-11-19T07:39:49;5.60;99.90
12815;DHT22;6472;52.328;13.070;2023-11-19T07:42:17;5.70;99.90
12815;DHT22;6472;52.328;13.070;2023-11-19T07:44:45;5.70;99.90
12815;DHT22;6472;52.328;13.070;2023-11-19T07:47:13;5.70;99.90
12815;DHT22;6472;52.328;13.070;2023-11-19T07:49:43;5.80;99.90
12815;DHT22;6472;52.328;13.070;2023-11-19T07:52:11;5.80;99.90
12815;DHT22;6472;52.328;13.070;2023-11-19T07:54:42;6.00;99.90
12815;DHT22;6472;52.328;13.070;2023-11-19T07:57:11;6.00;99.90
12815;DHT22;6472;52.328;13.070;2023-11-19T07:59:39;6.00;99.90
12815;DHT22;6472;52.328;13.070;2023-11-19T08:02:07;6.10;99.90
12815;DHT22;6472;52.328;13.070;2023-11-19T08:04:36;6.10;99.90
12815;DHT22;6472;52.328;13.070;2023-11-19T08:07:08;6.20;99.90
12815;DHT22;6472;52.328;13.070;2023-11-19T08:09:36;6.10;99.90
12815;DHT22;6472;52.328;13.070;2023-11-19T08:12:05;6.30;99.90
12815;DHT22;6472;52.328;13.070;2023-11-19T08:14:34;6.30;99.90
12815;DHT22;6472;52.328;13.070;2023-11-19T08:17:03;6.40;99.90
12815;DHT22;6472;52.328;13.070;2023-11-19T08:19:32;6.40;99.90
12815;DHT22;6472;52.328;13.070;2023-11-19T08:22:00;6.50;99.90
12815;DHT22;6472;52.328;13.070;2023-11-19T08:24:30;6.70;99.90
12815;DHT22;6472;52.328;13.070;2023-11-19T08:26:58;6.80;99.90
12815;DHT22;6472;52.328;13.070;2023-11-19T08:29:29;6.90;99.90
12815;DHT22;6472;52.328;13.070;2023-11-19T08:31:58;7.00;99.90
12815;DHT22;6472;52.328;13.070;2023-11-19T08:34:29;7.20;99.90
12815;DHT22;6472;52.328;13.070;2023-11-19T08:36:57;7.30;99.90
12815;DHT22;6472;52.328;13.070;2023-11-19T08:39:25;7.40;99.90
12815;DHT22;6472;52.328;13.070;2023-11-19T08:41:55;7.60;99.90
12815;DHT22;6472;52.328;13.070;2023-11-19T08:44:23;7.60;99.90
12815;DHT22;6472;52.328;13.070;2023-11-19T08:46:52;7.70;99.90
12815;DHT22;6472;52.328;13.070;2023-11-19T08:49:20;7.70;99.90
12815;DHT22;6472;52.328;13.070;2023-11-19T08:51:50;7.80;99.90
12815;DHT22;6472;52.328;13.070;2023-11-19T08:54:18;7.80;99.90
12815;DHT22;6472;52.328;13.070;2023-11-19T08:56:47;7.80;99.90
12815;DHT22;6472;52.328;13.070;2023-11-19T08:59:16;7.80;99.90
12815;DHT22;6472;52.328;13.070;2023-11-19T09:01:45;7.90;99.90
12815;DHT22;6472;52.328;13.070;2023-11-19T09:04:14;8.10;99.90
12815;DHT22;6472;52.328;13.070;2023-11-19T09:06:43;8.10;99.90
12815;DHT22;6472;52.328;13.070;2023-11-19T09:09:12;8.10;99.90
12815;DHT22;6472;52.328;13.070;2023-11-19T09:11:41;8.20;99.90
12815;DHT22;6472;52.328;13.070;2023-11-19T09:14:09;8.30;99.90
12815;DHT22;6472;52.328;13.070;2023-11-19T09:16:39;8.60;99.90
12815;DHT22;6472;52.328;13.070;2023-11-19T09:19:07;8.80;99.90
12815;DHT22;6472;52.328;13.070;2023-11-19T09:21:35;9.00;99.90
12815;DHT22;6472;52.328;13.070;2023-11-19T09:24:05;9.20;99.90
12815;DHT22;6472;52.328;13.070;2023-11-19T09:26:34;9.20;99.90
12815;DHT22;6472;52.328;13.070;2023-11-19T09:29:03;9.10;99.90
12815;DHT22;6472;52.328;13.070;2023-11-19T09:31:31;9.00;99.90
12815;DHT22;6472;52.328;13.070;2023-11-19T09:34:01;8.90;99.90
12815;DHT22;6472;52.328;13.070;2023-11-19T09:36:29;8.90;99.90
12815;DHT22;6472;52.328;13.070;2023-11-19T09:38:58;8.80;99.90
12815;DHT22;6472;52.328;13.070;2023-11-19T09:41:27;9.00;99.90
12815;DHT22;6472;52.328;13.070;2023-11-19T09:43:55;9.20;99.90
12815;DHT22;6472;52.328;13.070;2023-11-19T09:46:25;9.30;99.90
12815;DHT22;6472;52.328;13.070;2023-11-19T09:48:54;9.40;99.90
12815;DHT22;6472;52.328;13.070;2023-11-19T09:51:24;9.70;99.90
12815;DHT22;6472;52.328;13.070;2023-11-19T09:53:51;9.80;99.90
12815;DHT22;6472;52.328;13.070;2023-11-19T09:56:20;9.80;99.90
12815;DHT22;6472;52.328;13.070;2023-11-19T09:58:49;9.80;99.90
12815;DHT22;6472;52.328;13.070;2023-11-19T10:01:17;9.70;99.90
12815;DHT22;6472;52.328;13.070;2023-11-19T10:03:55;9.70;99.90
12815;DHT22;6472;52.328;13.070;2023-11-19T10:06:26;9.80;99.90
12815;DHT22;6472;52.328;13.070;2023-11-19T10:08:55;9.80;99.90
12815;DHT22;6472;52.328;13.070;2023-11-19T10:11:23;9.70;99.90
12815;DHT22;6472;52.328;13.070;2023-11-19T10:13:52;9.60;99.90
12815;DHT22;6472;52.328;13.070;2023-11-19T10:16:28;9.50;99.90
12815;DHT22;6472;52.328;13.070;2023-11-19T10:18:56;9.40;99.90
12815;DHT22;6472;52.328;13.070;2023-11-19T10:21:26;9.50;99.90
12815;DHT22;6472;52.328;13.070;2023-11-19T10:23:56;9.60;99.90
12815;DHT22;6472;52.328;13.070;2023-11-19T10:26:27;9.80;99.90
12815;DHT22;6472;52.328;13.070;2023-11-19T10:28:56;10.00;99.90
12815;DHT22;6472;52.328;13.070;2023-11-19T10:31:24;10.20;99.90
12815;DHT22;6472;52.328;13.070;2023-11-19T10:33:53;10.30;99.90
12815;DHT22;6472;52.328;13.070;2023-11-19T10:36:22;10.40;99.90
12815;DHT22;6472;52.328;13.070;2023-11-19T10:38:56;10.60;99.90
12815;DHT22;6472;52.328;13.070;2023-11-19T10:41:28;10.70;99.90
12815;DHT22;6472;52.328;13.070;2023-11-19T10:43:57;10.70;99.90
12815;DHT22;6472;52.328;13.070;2023-11-19T10:46:36;10.80;99.90
12815;DHT22;6472;52.328;13.070;2023-11-19T10:49:06;10.70;99.90
12815;DHT22;6472;52.328;13.070;2023-11-19T10:51:35;10.70;99.90
12815;DHT22;6472;52.328;13.070;2023-11-19T10:54:05;10.70;99.90
12815;DHT22;6472;52.328;13.070;2023-11-19T10:56:34;10.70;99.90
12815;DHT22;6472;52.328;13.070;2023-11-19T10:59:02;10.80;99.90
12815;DHT22;6472;52.328;13.070;2023-11-19T11:01:52;10.80;99.90
12815;DHT22;6472;52.328;13.070;2023-11-19T11:04:23;11.00;99.90
12815;DHT22;6472;52.328;13.070;2023-11-19T11:06:54;11.10;99.90
12815;DHT22;6472;52.328;13.070;2023-11-19T11:09:26;11.10;99.90
12815;DHT22;6472;52.328;13.070;2023-11-19T11:11:54;11.20;99.90
12815;DHT22;6472;52.328;13.070;2023-11-19T11:14:24;11.20;99.90
12815;DHT22;6472;52.328;13.070;2023-11-19T11:16:53;11.30;99.90
12815;DHT22;6472;52.328;13.070;2023-11-19T11:19:24;11.20;99.90
12815;DHT22;6472;52.328;13.070;2023-11-19T11:21:54;11.20;99.90
12815;DHT22;6472;52.328;13.070;2023-11-19T11:24:47;11.20;99.90
12815;DHT22;6472;52.328;13.070;2023-11-19T11:30:31;11.00;99.90
12815;DHT22;6472;52.328;13.070;2023-11-19T11:33:11;11.10;99.90
12815;DHT22;6472;52.328;13.070;2023-11-19T11:35:50;11.20;99.90
12815;DHT22;6472;52.328;13.070;2023-11-19T11:38:22;11.20;99.90
12815;DHT22;6472;52.328;13.070;2023-11-19T11:41:17;11.10;99.90
12815;DHT22;6472;52.328;13.070;2023-11-19T11:43:55;11.10;99.90
12815;DHT22;6472;52.328;13.070;2023-11-19T11:46:54;11.10;99.90
12815;DHT22;6472;52.328;13.070;2023-11-19T11:49:27;11.20;99.90
12815;DHT22;6472;52.328;13.070;2023-11-19T11:52:01;11.30;99.90
12815;DHT22;6472;52.328;13.070;2023-11-19T11:54:30;11.40;99.90
12815;DHT22;6472;52.328;13.070;2023-11-19T11:57:11;11.50;99.90
12815;DHT22;6472;52.328;13.070;2023-11-19T11:59:48;11.60;99.90
12815;DHT22;6472;52.328;13.070;2023-11-19T12:02:19;11.60;99.90
12815;DHT22;6472;52.328;13.070;2023-11-19T12:04:49;11.60;99.90
12815;DHT22;6472;52.328;13.070;2023-11-19T12:07:20;11.60;99.90
12815;DHT22;6472;52.328;13.070;2023-11-19T12:10:05;11.50;99.90
12815;DHT22;6472;52.328;13.070;2023-11-19T12:12:36;11.60;99.90
12815;DHT22;6472;52.328;13.070;2023-11-19T12:15:08;11.50;99.90
12815;DHT22;6472;52.328;13.070;2023-11-19T12:17:46;11.60;99.90
12815;DHT22;6472;52.328;13.070;2023-11-19T12:20:19;11.70;99.90
12815;DHT22;6472;52.328;13.070;2023-11-19T12:22:51;11.70;99.90
12815;DHT22;6472;52.328;13.070;2023-11-19T12:25:19;11.70;99.90
12815;DHT22;6472;52.328;13.070;2023-11-19T12:27:51;11.70;99.90
12815;DHT22;6472;52.328;13.070;2023-11-19T12:30:22;11.70;99.90
12815;DHT22;6472;52.328;13.070;2023-11-19T12:32:51;11.70;99.90
12815;DHT22;6472;52.328;13.070;2023-11-19T12:35:21;11.70;99.90
12815;DHT22;6472;52.328;13.070;2023-11-19T12:37:51;11.60;99.90
12815;DHT22;6472;52.328;13.070;2023-11-19T12:40:20;11.60;99.90
12815;DHT22;6472;52.328;13.070;2023-11-19T12:42:51;11.60;99.90
12815;DHT22;6472;52.328;13.070;2023-11-19T12:45:19;11.70;99.90
12815;DHT22;6472;52.328;13.070;2023-11-19T12:47:50;11.60;99.90
12815;DHT22;6472;52.328;13.070;2023-11-19T12:50:52;11.60;99.90
12815;DHT22;6472;52.328;13.070;2023-11-19T12:53:21;11.50;99.90
12815;DHT22;6472;52.328;13.070;2023-11-19T12:55:50;11.40;99.90
12815;DHT22;6472;52.328;13.070;2023-11-19T12:58:30;11.40;99.90
12815;DHT22;6472;52.328;13.070;2023-11-19T13:01:02;11.40;99.90
12815;DHT22;6472;52.328;13.070;2023-11-19T13:03:31;11.30;99.90
12815;DHT22;6472;52.328;13.070;2023-11-19T13:06:04;11.20;99.90
12815;DHT22;6472;52.328;13.070;2023-11-19T13:08:38;11.30;99.90
12815;DHT22;6472;52.328;13.070;2023-11-19T13:11:06;11.30;99.90
12815;DHT22;6472;52.328;13.070;2023-11-19T13:13:55;11.30;99.90
12815;DHT22;6472;52.328;13.070;2023-11-19T13:16:25;11.20;99.90
12815;DHT22;6472;52.328;13.070;2023-11-19T13:18:54;11.20;99.90
12815;DHT22;6472;52.328;13.070;2023-11-19T13:21:22;11.10;99.90
12815;DHT22;6472;52.328;13.070;2023-11-19T13:23:51;10.90;99.90
12815;DHT22;6472;52.328;13.070;2023-11-19T13:26:19;10.90;99.90
12815;DHT22;6472;52.328;13.070;2023-11-19T13:28:47;11.00;99.90
12815;DHT22;6472;52.328;13.070;2023-11-19T13:31:17;11.00;99.90
12815;DHT22;6472;52.328;13.070;2023-11-19T13:33:45;11.00;99.90
12815;DHT22;6472;52.328;13.070;2023-11-19T13:36:13;11.00;99.90
12815;DHT22;6472;52.328;13.070;2023-11-19T13:38:43;11.00;99.90
12815;DHT22;6472;52.328;13.070;2023-11-19T13:41:12;10.90;99.90
12815;DHT22;6472;52.328;13.070;2023-11-19T13:43:40;10.90;99.90
12815;DHT22;6472;52.328;13.070;2023-11-19T13:46:08;10.90;99.90
12815;DHT22;6472;52.328;13.070;2023-11-19T13:48:39;10.80;99.90
12815;DHT22;6472;52.328;13.070;2023-11-19T13:51:07;10.80;99.90
12815;DHT22;6472;52.328;13.070;2023-11-19T13:53:37;10.70;99.90
12815;DHT22;6472;52.328;13.070;2023-11-19T13:56:08;10.80;99.90
12815;DHT22;6472;52.328;13.070;2023-11-19T13:58:36;10.70;99.90
12815;DHT22;6472;52.328;13.070;2023-11-19T14:01:05;10.60;99.90
12815;DHT22;6472;52.328;13.070;2023-11-19T14:03:33;10.60;99.90
12815;DHT22;6472;52.328;13.070;2023-11-19T14:06:03;10.60;99.90
12815;DHT22;6472;52.328;13.070;2023-11-19T14:08:33;10.70;99.90
12815;DHT22;6472;52.328;13.070;2023-11-19T14:11:01;10.70;99.90
12815;DHT22;6472;52.328;13.070;2023-11-19T14:13:29;10.60;99.90
12815;DHT22;6472;52.328;13.070;2023-11-19T14:15:57;10.70;99.90
12815;DHT22;6472;52.328;13.070;2023-11-19T14:18:26;10.70;99.90
12815;DHT22;6472;52.328;13.070;2023-11-19T14:20:54;10.60;99.90
12815;DHT22;6472;52.328;13.070;2023-11-19T14:23:23;10.60;99.90
12815;DHT22;6472;52.328;13.070;2023-11-19T14:25:52;10.90;99.90
12815;DHT22;6472;52.328;13.070;2023-11-19T14:28:21;10.40;99.90
12815;DHT22;6472;52.328;13.070;2023-11-19T14:30:49;10.40;99.90
12815;DHT22;6472;52.328;13.070;2023-11-19T14:33:23;10.30;99.90
12815;DHT22;6472;52.328;13.070;2023-11-19T14:35:52;10.30;99.90
12815;DHT22;6472;52.328;13.070;2023-11-19T14:38:20;10.20;99.90
12815;DHT22;6472;52.328;13.070;2023-11-19T14:40:49;10.10;99.90
12815;DHT22;6472;52.328;13.070;2023-11-19T14:43:17;10.20;99.90
12815;DHT22;6472;52.328;13.070;2023-11-19T14:45:45;10.20;99.90
12815;DHT22;6472;52.328;13.070;2023-11-19T14:48:16;10.30;99.90
12815;DHT22;6472;52.328;13.070;2023-11-19T14:50:45;10.40;99.90
12815;DHT22;6472;52.328;13.070;2023-11-19T14:53:13;10.20;99.90
12815;DHT22;6472;52.328;13.070;2023-11-19T14:55:42;10.30;99.90
12815;DHT22;6472;52.328;13.070;2023-11-19T14:58:12;10.30;99.90
12815;DHT22;6472;52.328;13.070;2023-11-19T15:00:43;10.30;99.90
12815;DHT22;6472;52.328;13.070;2023-11-19T15:03:13;10.40;99.90
12815;DHT22;6472;52.328;13.070;2023-11-19T15:05:43;10.50;99.90
12815;DHT22;6472;52.328;13.070;2023-11-19T15:08:11;10.40;99.90
12815;DHT22;6472;52.328;13.070;2023-11-19T15:10:41;10.40;99.90
12815;DHT22;6472;52.328;13.070;2023-11-19T15:13:11;10.30;99.90
12815;DHT22;6472;52.328;13.070;2023-11-19T15:15:39;10.30;99.90
12815;DHT22;6472;52.328;13.070;2023-11-19T15:18:07;10.30;99.90
12815;DHT22;6472;52.328;13.070;2023-11-19T15:20:36;10.30;99.90
12815;DHT22;6472;52.328;13.070;2023-11-19T15:23:04;10.30;99.90
12815;DHT22;6472;52.328;13.070;2023-11-19T15:25:35;10.20;99.90
12815;DHT22;6472;52.328;13.070;2023-11-19T15:28:03;10.10;99.90
12815;DHT22;6472;52.328;13.070;2023-11-19T15:30:33;10.10;99.90
12815;DHT22;6472;52.328;13.070;2023-11-19T15:33:01;10.00;99.90
12815;DHT22;6472;52.328;13.070;2023-11-19T15:35:29;10.00;99.90
12815;DHT22;6472;52.328;13.070;2023-11-19T15:37:58;10.00;99.90
12815;DHT22;6472;52.328;13.070;2023-11-19T15:40:26;10.00;99.90
12815;DHT22;6472;52.328;13.070;2023-11-19T15:42:54;9.90;99.90
12815;DHT22;6472;52.328;13.070;2023-11-19T15:45:24;10.00;99.90
12815;DHT22;6472;52.328;13.070;2023-11-19T15:47:53;9.90;99.90
12815;DHT22;6472;52.328;13.070;2023-11-19T15:50:22;9.80;99.90
12815;DHT22;6472;52.328;13.070;2023-11-19T15:52:50;9.80;99.90
12815;DHT22;6472;52.328;13.070;2023-11-19T15:55:18;9.80;99.90
12815;DHT22;6472;52.328;13.070;2023-11-19T15:57:46;9.80;99.90
12815;DHT22;6472;52.328;13.070;2023-11-19T16:00:16;9.80;99.90
12815;DHT22;6472;52.328;13.070;2023-11-19T16:02:47;9.80;99.90